sensor_id;sensor_type;location;lat;lon;timestamp;pressure;altitude;pressure_sealevel;temperature;humidity
50310;BME280;36207;51.850;21.698;2023-03-23T00:04:51;99312.82;;;9.97;66.89
50310;BME280;36207;51.850;21.698;2023-03-23T00:07:22;99313.83;;;9.96;67.03
50310;BME280;36207;51.850;21.698;2023-03-23T00:09:49;99306.55;;;9.95;67.04
50310;BME280;36207;51.850;21.698;2023-03-23T00:12:23;99312.13;;;9.97;67.06
50310;BME280;36207;51.850;21.698;2023-03-23T00:15:06;99308.20;;;10.01;67.02
50310;BME280;36207;51.850;21.698;2023-03-23T00:17:34;99304.27;;;10.07;67.14
50310;BME280;36207;51.850;21.698;2023-03-23T00:20:00;99305.34;;;10.13;67.06
50310;BME280;36207;51.850;21.698;2023-03-23T00:22:29;99304.61;;;10.17;67.38
50310;BME280;36207;51.850;21.698;2023-03-23T00:24:55;99305.89;;;10.20;67.75
50310;BME280;36207;51.850;21.698;2023-03-23T00:27:22;99300.09;;;10.22;67.53
50310;BME280;36207;51.850;21.698;2023-03-23T00:29:49;99299.84;;;10.22;67.48
50310;BME280;36207;51.850;21.698;2023-03-23T00:32:19;99297.77;;;10.25;67.44
50310;BME280;36207;51.850;21.698;2023-03-23T00:34:46;99295.06;;;10.28;67.36
50310;BME280;36207;51.850;21.698;2023-03-23T00:37:14;99287.45;;;10.32;67.53
50310;BME280;36207;51.850;21.698;2023-03-23T00:39:42;99281.01;;;10.38;67.49
50310;BME280;36207;51.850;21.698;2023-03-23T00:42:12;99284.52;;;10.43;67.35
50310;BME280;36207;51.850;21.698;2023-03-23T00:44:39;99283.19;;;10.46;67.34
50310;BME280;36207;51.850;21.698;2023-03-23T00:47:06;99282.88;;;10.47;67.28
50310;BME280;36207;51.850;21.698;2023-03-23T00:49:34;99281.77;;;10.47;67.13
50310;BME280;36207;51.850;21.698;2023-03-23T00:52:01;99278.84;;;10.47;67.20
50310;BME280;36207;51.850;21.698;2023-03-23T00:54:27;99274.85;;;10.46;67.29
50310;BME280;36207;51.850;21.698;2023-03-23T00:56:54;99276.48;;;10.43;67.19
50310;BME280;36207;51.850;21.698;2023-03-23T00:59:21;99276.25;;;10.39;67.27
50310;BME280;36207;51.850;21.698;2023-03-23T01:01:48;99273.14;;;10.34;67.28
50310;BME280;36207;51.850;21.698;2023-03-23T01:04:15;99273.10;;;10.29;67.16
50310;BME280;36207;51.850;21.698;2023-03-23T01:06:43;99269.39;;;10.24;67.09
50310;BME280;36207;51.850;21.698;2023-03-23T01:09:12;99268.89;;;10.22;67.18
50310;BME280;36207;51.850;21.698;2023-03-23T01:11:45;99265.77;;;10.19;67.14
50310;BME280;36207;51.850;21.698;2023-03-23T01:14:14;99266.02;;;10.17;67.16
50310;BME280;36207;51.850;21.698;2023-03-23T01:16:41;99260.02;;;10.15;67.30
50310;BME280;36207;51.850;21.698;2023-03-23T01:19:07;99255.08;;;10.14;67.28
50310;BME280;36207;51.850;21.698;2023-03-23T01:21:33;99251.30;;;10.08;67.28
50310;BME280;36207;51.850;21.698;2023-03-23T01:23:58;99253.20;;;10.03;67.24
50310;BME280;36207;51.850;21.698;2023-03-23T01:26:26;99247.52;;;9.96;67.25
50310;BME280;36207;51.850;21.698;2023-03-23T01:28:53;99254.08;;;9.91;67.37
50310;BME280;36207;51.850;21.698;2023-03-23T01:31:22;99250.00;;;9.83;67.18
50310;BME280;36207;51.850;21.698;2023-03-23T01:33:49;99245.77;;;9.76;67.31
50310;BME280;36207;51.850;21.698;2023-03-23T01:36:22;99249.70;;;9.72;67.32
50310;BME280;36207;51.850;21.698;2023-03-23T01:38:49;99247.51;;;9.69;67.64
50310;BME280;36207;51.850;21.698;2023-03-23T01:41:16;99251.69;;;9.73;67.51
50310;BME280;36207;51.850;21.698;2023-03-23T01:43:58;99248.08;;;9.78;67.56
50310;BME280;36207;51.850;21.698;2023-03-23T01:46:33;99248.85;;;9.83;67.73
50310;BME280;36207;51.850;21.698;2023-03-23T01:49:12;99243.75;;;9.85;67.62
50310;BME280;36207;51.850;21.698;2023-03-23T01:51:52;99245.68;;;9.87;67.70
50310;BME280;36207;51.850;21.698;2023-03-23T01:54:20;99244.25;;;9.87;67.55
50310;BME280;36207;51.850;21.698;2023-03-23T01:57:05;99241.92;;;9.85;67.56
50310;BME280;36207;51.850;21.698;2023-03-23T01:59:36;99240.25;;;9.83;67.68
50310;BME280;36207;51.850;21.698;2023-03-23T02:02:02;99241.96;;;9.82;67.56
50310;BME280;36207;51.850;21.698;2023-03-23T02:04:29;99241.04;;;9.82;67.67
50310;BME280;36207;51.850;21.698;2023-03-23T02:06:56;99240.23;;;9.85;67.87
50310;BME280;36207;51.850;21.698;2023-03-23T02:09:26;99244.13;;;9.88;67.83
50310;BME280;36207;51.850;21.698;2023-03-23T02:11:54;99241.52;;;9.90;67.75
50310;BME280;36207;51.850;21.698;2023-03-23T02:14:21;99240.94;;;9.89;67.76
50310;BME280;36207;51.850;21.698;2023-03-23T02:17:11;99238.91;;;9.89;67.85
50310;BME280;36207;51.850;21.698;2023-03-23T02:36:37;99234.08;;;9.98;68.00
50310;BME280;36207;51.850;21.698;2023-03-23T02:39:21;99233.95;;;9.98;67.91
50310;BME280;36207;51.850;21.698;2023-03-23T02:41:52;99234.09;;;9.94;67.90
50310;BME280;36207;51.850;21.698;2023-03-23T02:44:22;99241.58;;;9.87;67.78
50310;BME280;36207;51.850;21.698;2023-03-23T02:46:48;99240.73;;;9.81;67.81
50310;BME280;36207;51.850;21.698;2023-03-23T02:49:15;99235.63;;;9.70;67.83
50310;BME280;36207;51.850;21.698;2023-03-23T02:51:44;99236.90;;;9.62;67.89
50310;BME280;36207;51.850;21.698;2023-03-23T02:54:12;99241.06;;;9.58;67.91
50310;BME280;36207;51.850;21.698;2023-03-23T02:56:39;99237.96;;;9.56;68.18
50310;BME280;36207;51.850;21.698;2023-03-23T02:59:05;99233.42;;;9.53;68.36
50310;BME280;36207;51.850;21.698;2023-03-23T03:04:13;99229.00;;;9.53;68.27
50310;BME280;36207;51.850;21.698;2023-03-23T03:07:01;99229.70;;;9.54;68.41
50310;BME280;36207;51.850;21.698;2023-03-23T03:12:30;99225.88;;;9.52;68.30
50310;BME280;36207;51.850;21.698;2023-03-23T03:17:31;99222.30;;;9.54;68.49
50310;BME280;36207;51.850;21.698;2023-03-23T03:20:02;99222.79;;;9.55;68.42
50310;BME280;36207;51.850;21.698;2023-03-23T03:22:37;99228.78;;;9.57;68.37
50310;BME280;36207;51.850;21.698;2023-03-23T03:25:08;99227.88;;;9.57;68.37
50310;BME280;36207;51.850;21.698;2023-03-23T03:27:35;99224.62;;;9.55;68.16
50310;BME280;36207;51.850;21.698;2023-03-23T03:30:04;99220.35;;;9.49;68.27
50310;BME280;36207;51.850;21.698;2023-03-23T03:32:50;99220.64;;;9.44;68.35
50310;BME280;36207;51.850;21.698;2023-03-23T03:35:21;99213.27;;;9.36;68.55
50310;BME280;36207;51.850;21.698;2023-03-23T03:37:48;99220.14;;;9.35;68.52
50310;BME280;36207;51.850;21.698;2023-03-23T03:40:15;99221.17;;;9.37;68.59
50310;BME280;36207;51.850;21.698;2023-03-23T03:42:43;99217.23;;;9.40;68.64
50310;BME280;36207;51.850;21.698;2023-03-23T03:45:13;99219.06;;;9.43;69.06
50310;BME280;36207;51.850;21.698;2023-03-23T03:47:39;99211.17;;;9.42;68.86
50310;BME280;36207;51.850;21.698;2023-03-23T03:50:05;99212.46;;;9.43;68.88
50310;BME280;36207;51.850;21.698;2023-03-23T03:52:33;99212.33;;;9.41;68.85
50310;BME280;36207;51.850;21.698;2023-03-23T03:54:59;99207.24;;;9.42;68.76
50310;BME280;36207;51.850;21.698;2023-03-23T03:57:25;99207.89;;;9.44;69.02
50310;BME280;36207;51.850;21.698;2023-03-23T03:59:51;99205.27;;;9.45;69.00
50310;BME280;36207;51.850;21.698;2023-03-23T04:02:18;99198.64;;;9.45;68.93
50310;BME280;36207;51.850;21.698;2023-03-23T04:04:49;99199.50;;;9.46;68.97
50310;BME280;36207;51.850;21.698;2023-03-23T04:07:18;99206.34;;;9.46;68.87
50310;BME280;36207;51.850;21.698;2023-03-23T04:09:45;99210.39;;;9.46;68.94
50310;BME280;36207;51.850;21.698;2023-03-23T04:12:13;99209.90;;;9.45;68.94
50310;BME280;36207;51.850;21.698;2023-03-23T04:14:39;99208.83;;;9.40;68.99
50310;BME280;36207;51.850;21.698;2023-03-23T04:17:04;99207.56;;;9.36;69.14
50310;BME280;36207;51.850;21.698;2023-03-23T04:19:32;99209.92;;;9.34;69.33
50310;BME280;36207;51.850;21.698;2023-03-23T04:21:59;99203.73;;;9.34;69.30
50310;BME280;36207;51.850;21.698;2023-03-23T04:24:25;99202.38;;;9.34;69.23
50310;BME280;36207;51.850;21.698;2023-03-23T04:26:53;99203.89;;;9.33;69.42
50310;BME280;36207;51.850;21.698;2023-03-23T04:29:20;99205.34;;;9.31;69.42
50310;BME280;36207;51.850;21.698;2023-03-23T04:31:46;99211.86;;;9.30;69.29
50310;BME280;36207;51.850;21.698;2023-03-23T04:34:11;99219.23;;;9.28;69.44
50310;BME280;36207;51.850;21.698;2023-03-23T04:36:39;99225.35;;;9.27;69.34
50310;BME280;36207;51.850;21.698;2023-03-23T04:39:06;99222.40;;;9.27;69.20
50310;BME280;36207;51.850;21.698;2023-03-23T04:41:36;99223.02;;;9.29;69.24
50310;BME280;36207;51.850;21.698;2023-03-23T04:44:03;99219.77;;;9.31;69.29
50310;BME280;36207;51.850;21.698;2023-03-23T04:46:30;99214.37;;;9.31;69.45
50310;BME280;36207;51.850;21.698;2023-03-23T04:48:56;99208.00;;;9.30;69.44
50310;BME280;36207;51.850;21.698;2023-03-23T04:51:25;99204.71;;;9.28;69.47
50310;BME280;36207;51.850;21.698;2023-03-23T04:53:53;99200.00;;;9.29;69.73
50310;BME280;36207;51.850;21.698;2023-03-23T04:56:19;99200.18;;;9.31;69.80
50310;BME280;36207;51.850;21.698;2023-03-23T04:58:45;99195.79;;;9.35;69.77
50310;BME280;36207;51.850;21.698;2023-03-23T05:01:12;99195.11;;;9.38;69.82
50310;BME280;36207;51.850;21.698;2023-03-23T05:03:43;99188.17;;;9.41;69.98
50310;BME280;36207;51.850;21.698;2023-03-23T05:06:10;99192.29;;;9.42;69.72
50310;BME280;36207;51.850;21.698;2023-03-23T05:08:36;99194.89;;;9.44;69.75
50310;BME280;36207;51.850;21.698;2023-03-23T05:11:05;99198.31;;;9.47;69.72
50310;BME280;36207;51.850;21.698;2023-03-23T05:13:32;99204.63;;;9.50;69.65
50310;BME280;36207;51.850;21.698;2023-03-23T05:15:58;99206.70;;;9.54;69.84
50310;BME280;36207;51.850;21.698;2023-03-23T05:18:29;99212.52;;;9.58;70.06
50310;BME280;36207;51.850;21.698;2023-03-23T05:20:59;99209.84;;;9.61;70.09
50310;BME280;36207;51.850;21.698;2023-03-23T05:23:28;99202.56;;;9.65;70.07
50310;BME280;36207;51.850;21.698;2023-03-23T05:25:57;99201.56;;;9.69;70.27
50310;BME280;36207;51.850;21.698;2023-03-23T05:28:26;99197.63;;;9.73;70.34
50310;BME280;36207;51.850;21.698;2023-03-23T05:30:53;99194.84;;;9.80;70.16
50310;BME280;36207;51.850;21.698;2023-03-23T05:33:20;99192.31;;;9.86;70.13
50310;BME280;36207;51.850;21.698;2023-03-23T05:35:46;99198.31;;;9.90;70.25
50310;BME280;36207;51.850;21.698;2023-03-23T05:38:13;99197.92;;;9.92;70.26
50310;BME280;36207;51.850;21.698;2023-03-23T05:40:40;99196.89;;;9.96;70.12
50310;BME280;36207;51.850;21.698;2023-03-23T05:43:09;99196.08;;;9.99;70.11
50310;BME280;36207;51.850;21.698;2023-03-23T05:45:35;99194.33;;;10.00;70.40
50310;BME280;36207;51.850;21.698;2023-03-23T05:48:01;99198.77;;;10.02;70.31
50310;BME280;36207;51.850;21.698;2023-03-23T05:50:27;99198.21;;;10.06;70.46
50310;BME280;36207;51.850;21.698;2023-03-23T05:52:54;99200.55;;;10.11;70.36
50310;BME280;36207;51.850;21.698;2023-03-23T05:55:20;99198.32;;;10.14;70.27
50310;BME280;36207;51.850;21.698;2023-03-23T05:57:46;99203.20;;;10.16;70.41
50310;BME280;36207;51.850;21.698;2023-03-23T06:00:13;99196.92;;;10.16;70.33
50310;BME280;36207;51.850;21.698;2023-03-23T06:02:47;99196.98;;;10.17;70.22
50310;BME280;36207;51.850;21.698;2023-03-23T06:05:14;99188.54;;;10.21;70.36
50310;BME280;36207;51.850;21.698;2023-03-23T06:07:42;99186.89;;;10.25;70.19
50310;BME280;36207;51.850;21.698;2023-03-23T06:10:09;99181.27;;;10.29;70.20
50310;BME280;36207;51.850;21.698;2023-03-23T06:12:35;99175.16;;;10.33;70.25
50310;BME280;36207;51.850;21.698;2023-03-23T06:15:01;99178.99;;;10.34;70.09
50310;BME280;36207;51.850;21.698;2023-03-23T06:17:29;99186.14;;;10.36;70.10
50310;BME280;36207;51.850;21.698;2023-03-23T06:19:55;99188.58;;;10.38;70.26
50310;BME280;36207;51.850;21.698;2023-03-23T06:22:21;99191.63;;;10.40;70.15
50310;BME280;36207;51.850;21.698;2023-03-23T06:24:47;99188.81;;;10.45;70.24
50310;BME280;36207;51.850;21.698;2023-03-23T06:27:14;99190.28;;;10.50;70.17
50310;BME280;36207;51.850;21.698;2023-03-23T06:29:45;99191.00;;;10.56;70.12
50310;BME280;36207;51.850;21.698;2023-03-23T06:32:11;99192.98;;;10.61;70.07
50310;BME280;36207;51.850;21.698;2023-03-23T06:34:38;99196.45;;;10.66;70.13
50310;BME280;36207;51.850;21.698;2023-03-23T06:37:04;99195.45;;;10.71;70.23
50310;BME280;36207;51.850;21.698;2023-03-23T06:39:30;99192.57;;;10.77;70.20
50310;BME280;36207;51.850;21.698;2023-03-23T06:41:57;99194.55;;;10.83;70.14
50310;BME280;36207;51.850;21.698;2023-03-23T06:44:25;99202.88;;;10.92;70.14
50310;BME280;36207;51.850;21.698;2023-03-23T06:46:51;99201.74;;;10.99;70.10
50310;BME280;36207;51.850;21.698;2023-03-23T06:49:17;99203.45;;;11.05;70.10
50310;BME280;36207;51.850;21.698;2023-03-23T06:51:42;99202.91;;;11.12;69.82
50310;BME280;36207;51.850;21.698;2023-03-23T06:54:08;99199.64;;;11.16;69.98
50310;BME280;36207;51.850;21.698;2023-03-23T06:56:34;99197.55;;;11.20;69.87
50310;BME280;36207;51.850;21.698;2023-03-23T06:59:00;99198.75;;;11.23;69.88
50310;BME280;36207;51.850;21.698;2023-03-23T07:01:30;99201.77;;;11.27;69.73
50310;BME280;36207;51.850;21.698;2023-03-23T07:03:56;99207.00;;;11.33;69.79
50310;BME280;36207;51.850;21.698;2023-03-23T07:06:22;99216.37;;;11.40;69.82
50310;BME280;36207;51.850;21.698;2023-03-23T07:08:49;99217.83;;;11.46;69.71
50310;BME280;36207;51.850;21.698;2023-03-23T07:11:15;99217.73;;;11.49;69.62
50310;BME280;36207;51.850;21.698;2023-03-23T07:13:43;99219.73;;;11.53;69.65
50310;BME280;36207;51.850;21.698;2023-03-23T07:16:10;99217.10;;;11.55;69.68
50310;BME280;36207;51.850;21.698;2023-03-23T07:18:36;99218.31;;;11.58;69.57
50310;BME280;36207;51.850;21.698;2023-03-23T07:21:02;99222.61;;;11.59;69.53
50310;BME280;36207;51.850;21.698;2023-03-23T07:23:29;99225.67;;;11.60;69.53
50310;BME280;36207;51.850;21.698;2023-03-23T07:25:55;99225.48;;;11.62;69.47
50310;BME280;36207;51.850;21.698;2023-03-23T07:28:22;99233.02;;;11.63;69.45
50310;BME280;36207;51.850;21.698;2023-03-23T07:30:48;99232.31;;;11.66;69.43
50310;BME280;36207;51.850;21.698;2023-03-23T07:33:14;99230.67;;;11.72;69.52
50310;BME280;36207;51.850;21.698;2023-03-23T07:35:41;99233.55;;;11.78;69.61
50310;BME280;36207;51.850;21.698;2023-03-23T07:38:07;99226.73;;;11.83;69.27
50310;BME280;36207;51.850;21.698;2023-03-23T07:40:33;99226.11;;;11.87;69.19
50310;BME280;36207;51.850;21.698;2023-03-23T07:43:00;99224.65;;;11.90;69.30
50310;BME280;36207;51.850;21.698;2023-03-23T07:45:27;99230.58;;;11.92;69.00
50310;BME280;36207;51.850;21.698;2023-03-23T07:47:53;99229.66;;;11.93;68.99
50310;BME280;36207;51.850;21.698;2023-03-23T07:50:19;99227.60;;;11.98;69.57
50310;BME280;36207;51.850;21.698;2023-03-23T07:52:48;99227.55;;;12.05;69.50
50310;BME280;36207;51.850;21.698;2023-03-23T07:55:14;99225.03;;;12.15;69.46
50310;BME280;36207;51.850;21.698;2023-03-23T07:57:44;99229.23;;;12.27;69.26
50310;BME280;36207;51.850;21.698;2023-03-23T08:00:15;99227.48;;;12.41;69.28
50310;BME280;36207;51.850;21.698;2023-03-23T08:02:49;99224.27;;;12.55;69.33
50310;BME280;36207;51.850;21.698;2023-03-23T08:05:16;99221.31;;;12.66;69.05
50310;BME280;36207;51.850;21.698;2023-03-23T08:07:43;99225.64;;;12.77;69.23
50310;BME280;36207;51.850;21.698;2023-03-23T08:10:11;99223.77;;;12.89;69.30
50310;BME280;36207;51.850;21.698;2023-03-23T08:12:39;99221.11;;;13.00;68.97
50310;BME280;36207;51.850;21.698;2023-03-23T08:15:06;99217.11;;;13.07;68.58
50310;BME280;36207;51.850;21.698;2023-03-23T08:17:34;99219.11;;;13.12;68.56
50310;BME280;36207;51.850;21.698;2023-03-23T08:20:00;99211.48;;;13.19;68.60
50310;BME280;36207;51.850;21.698;2023-03-23T08:22:27;99212.58;;;13.25;68.24
50310;BME280;36207;51.850;21.698;2023-03-23T08:24:54;99214.77;;;13.31;68.17
50310;BME280;36207;51.850;21.698;2023-03-23T08:27:21;99213.90;;;13.39;68.29
50310;BME280;36207;51.850;21.698;2023-03-23T08:29:46;99212.16;;;13.46;68.14
50310;BME280;36207;51.850;21.698;2023-03-23T08:32:13;99211.09;;;13.58;68.22
50310;BME280;36207;51.850;21.698;2023-03-23T08:34:40;99207.08;;;13.74;68.05
50310;BME280;36207;51.850;21.698;2023-03-23T08:37:07;99210.59;;;13.87;68.17
50310;BME280;36207;51.850;21.698;2023-03-23T08:39:34;99210.95;;;13.97;67.93
50310;BME280;36207;51.850;21.698;2023-03-23T08:42:00;99210.20;;;14.07;67.66
50310;BME280;36207;51.850;21.698;2023-03-23T08:44:26;99215.48;;;14.19;67.30
50310;BME280;36207;51.850;21.698;2023-03-23T08:46:52;99213.05;;;14.23;67.11
50310;BME280;36207;51.850;21.698;2023-03-23T08:49:23;99211.91;;;14.26;66.92
50310;BME280;36207;51.850;21.698;2023-03-23T08:51:49;99216.02;;;14.28;66.81
50310;BME280;36207;51.850;21.698;2023-03-23T08:54:15;99215.99;;;14.26;67.04
50310;BME280;36207;51.850;21.698;2023-03-23T08:56:43;99217.65;;;14.26;66.91
50310;BME280;36207;51.850;21.698;2023-03-23T08:59:10;99215.49;;;14.26;66.47
50310;BME280;36207;51.850;21.698;2023-03-23T09:01:37;99217.89;;;14.27;66.17
50310;BME280;36207;51.850;21.698;2023-03-23T09:04:03;99214.84;;;14.26;65.80
50310;BME280;36207;51.850;21.698;2023-03-23T09:06:30;99208.63;;;14.24;65.80
50310;BME280;36207;51.850;21.698;2023-03-23T09:08:55;99206.05;;;14.25;66.15
50310;BME280;36207;51.850;21.698;2023-03-23T09:11:22;99207.77;;;14.25;65.76
50310;BME280;36207;51.850;21.698;2023-03-23T09:13:48;99209.88;;;14.27;65.80
50310;BME280;36207;51.850;21.698;2023-03-23T09:16:13;99203.95;;;14.28;65.63
50310;BME280;36207;51.850;21.698;2023-03-23T09:18:40;99200.16;;;14.30;65.83
50310;BME280;36207;51.850;21.698;2023-03-23T09:21:06;99197.52;;;14.30;65.19
50310;BME280;36207;51.850;21.698;2023-03-23T09:23:32;99192.48;;;14.30;65.00
50310;BME280;36207;51.850;21.698;2023-03-23T09:26:02;99194.23;;;14.33;65.50
50310;BME280;36207;51.850;21.698;2023-03-23T09:28:28;99193.21;;;14.34;64.91
50310;BME280;36207;51.850;21.698;2023-03-23T09:30:55;99192.10;;;14.36;64.40
50310;BME280;36207;51.850;21.698;2023-03-23T09:33:23;99193.03;;;14.37;65.15
50310;BME280;36207;51.850;21.698;2023-03-23T09:35:49;99192.98;;;14.39;64.80
50310;BME280;36207;51.850;21.698;2023-03-23T09:38:15;99194.02;;;14.41;65.01
50310;BME280;36207;51.850;21.698;2023-03-23T09:40:51;99192.29;;;14.44;64.82
50310;BME280;36207;51.850;21.698;2023-03-23T09:43:49;99187.52;;;14.50;64.72
50310;BME280;36207;51.850;21.698;2023-03-23T09:46:27;99186.30;;;14.55;64.28
50310;BME280;36207;51.850;21.698;2023-03-23T09:49:03;99187.91;;;14.60;64.15
50310;BME280;36207;51.850;21.698;2023-03-23T09:51:39;99193.55;;;14.66;64.41
50310;BME280;36207;51.850;21.698;2023-03-23T09:54:26;99192.44;;;14.71;63.83
50310;BME280;36207;51.850;21.698;2023-03-23T09:56:53;99184.34;;;14.78;63.99
50310;BME280;36207;51.850;21.698;2023-03-23T09:59:27;99182.30;;;14.85;63.04
50310;BME280;36207;51.850;21.698;2023-03-23T10:01:59;99179.98;;;14.92;63.38
50310;BME280;36207;51.850;21.698;2023-03-23T10:04:39;99176.68;;;15.01;62.94
50310;BME280;36207;51.850;21.698;2023-03-23T10:07:13;99176.59;;;15.10;62.94
50310;BME280;36207;51.850;21.698;2023-03-23T10:09:41;99175.98;;;15.17;63.34
50310;BME280;36207;51.850;21.698;2023-03-23T10:20:23;99163.34;;;15.32;61.57
50310;BME280;36207;51.850;21.698;2023-03-23T10:22:58;99160.40;;;15.33;60.87
50310;BME280;36207;51.850;21.698;2023-03-23T10:25:29;99160.77;;;15.33;60.54
50310;BME280;36207;51.850;21.698;2023-03-23T10:28:11;99163.88;;;15.32;61.06
50310;BME280;36207;51.850;21.698;2023-03-23T10:30:40;99158.06;;;15.32;60.92
50310;BME280;36207;51.850;21.698;2023-03-23T10:38:47;99154.09;;;15.37;60.58
50310;BME280;36207;51.850;21.698;2023-03-23T10:41:19;99152.83;;;15.40;60.78
50310;BME280;36207;51.850;21.698;2023-03-23T10:43:46;99147.42;;;15.45;60.64
50310;BME280;36207;51.850;21.698;2023-03-23T10:49:03;99142.06;;;15.60;59.24
50310;BME280;36207;51.850;21.698;2023-03-23T10:51:36;99134.27;;;15.73;59.09
50310;BME280;36207;51.850;21.698;2023-03-23T10:54:04;99136.17;;;15.86;59.94
50310;BME280;36207;51.850;21.698;2023-03-23T10:59:26;99126.46;;;16.05;58.66
50310;BME280;36207;51.850;21.698;2023-03-23T11:01:56;99129.66;;;16.13;58.15
50310;BME280;36207;51.850;21.698;2023-03-23T11:04:28;99127.89;;;16.19;56.73
50310;BME280;36207;51.850;21.698;2023-03-23T11:06:59;99131.23;;;16.26;56.39
50310;BME280;36207;51.850;21.698;2023-03-23T11:09:38;99128.38;;;16.32;55.52
50310;BME280;36207;51.850;21.698;2023-03-23T11:12:17;99124.65;;;16.36;55.64
50310;BME280;36207;51.850;21.698;2023-03-23T11:14:43;99113.74;;;16.41;56.14
50310;BME280;36207;51.850;21.698;2023-03-23T11:17:25;99112.38;;;16.48;56.53
50310;BME280;36207;51.850;21.698;2023-03-23T11:19:55;99113.42;;;16.58;55.52
50310;BME280;36207;51.850;21.698;2023-03-23T11:22:25;99103.80;;;16.68;55.96
50310;BME280;36207;51.850;21.698;2023-03-23T11:24:59;99102.05;;;16.80;55.50
50310;BME280;36207;51.850;21.698;2023-03-23T11:27:27;99100.55;;;16.92;54.21
50310;BME280;36207;51.850;21.698;2023-03-23T11:32:44;99099.11;;;17.12;54.16
50310;BME280;36207;51.850;21.698;2023-03-23T11:35:22;99104.23;;;17.25;55.42
50310;BME280;36207;51.850;21.698;2023-03-23T11:37:54;99098.61;;;17.38;54.72
50310;BME280;36207;51.850;21.698;2023-03-23T11:40:25;99091.51;;;17.50;55.12
50310;BME280;36207;51.850;21.698;2023-03-23T11:43:08;99092.86;;;17.65;55.12
50310;BME280;36207;51.850;21.698;2023-03-23T11:46:01;99087.50;;;17.78;54.08
50310;BME280;36207;51.850;21.698;2023-03-23T11:51:27;99080.51;;;17.90;54.17
50310;BME280;36207;51.850;21.698;2023-03-23T11:56:36;99074.09;;;17.87;53.46
50310;BME280;36207;51.850;21.698;2023-03-23T11:59:25;99077.95;;;17.84;52.69
50310;BME280;36207;51.850;21.698;2023-03-23T12:02:19;99068.28;;;17.81;52.62
50310;BME280;36207;51.850;21.698;2023-03-23T12:10:44;99059.92;;;17.81;52.37
50310;BME280;36207;51.850;21.698;2023-03-23T12:13:30;99057.58;;;17.85;51.66
50310;BME280;36207;51.850;21.698;2023-03-23T12:16:15;99062.58;;;17.91;52.13
50310;BME280;36207;51.850;21.698;2023-03-23T12:19:18;99053.14;;;17.96;52.62
50310;BME280;36207;51.850;21.698;2023-03-23T12:27:47;99040.94;;;18.15;50.08
50310;BME280;36207;51.850;21.698;2023-03-23T12:33:35;99039.57;;;18.22;49.93
50310;BME280;36207;51.850;21.698;2023-03-23T12:47:40;99013.83;;;18.84;49.37
50310;BME280;36207;51.850;21.698;2023-03-23T12:53:14;99019.63;;;18.87;48.31
50310;BME280;36207;51.850;21.698;2023-03-23T12:55:49;99018.55;;;18.80;47.07
50310;BME280;36207;51.850;21.698;2023-03-23T12:58:24;99018.48;;;18.73;47.03
50310;BME280;36207;51.850;21.698;2023-03-23T13:00:59;99019.88;;;18.69;47.19
50310;BME280;36207;51.850;21.698;2023-03-23T13:03:44;99015.48;;;18.66;46.88
50310;BME280;36207;51.850;21.698;2023-03-23T13:06:32;99014.02;;;18.60;45.73
50310;BME280;36207;51.850;21.698;2023-03-23T13:09:09;99013.16;;;18.56;46.42
50310;BME280;36207;51.850;21.698;2023-03-23T13:11:42;99016.33;;;18.53;46.38
50310;BME280;36207;51.850;21.698;2023-03-23T13:20:08;99000.04;;;18.41;46.70
50310;BME280;36207;51.850;21.698;2023-03-23T13:25:55;98985.01;;;18.35;47.42
50310;BME280;36207;51.850;21.698;2023-03-23T13:28:30;98980.31;;;18.29;47.72
50310;BME280;36207;51.850;21.698;2023-03-23T13:31:16;98970.13;;;18.28;47.94
50310;BME280;36207;51.850;21.698;2023-03-23T13:33:49;98959.86;;;18.28;47.96
50310;BME280;36207;51.850;21.698;2023-03-23T13:36:25;98947.36;;;18.26;47.58
50310;BME280;36207;51.850;21.698;2023-03-23T13:38:51;98950.27;;;18.26;47.97
50310;BME280;36207;51.850;21.698;2023-03-23T13:41:19;98975.05;;;18.23;46.41
50310;BME280;36207;51.850;21.698;2023-03-23T13:43:47;98978.69;;;18.19;46.57
50310;BME280;36207;51.850;21.698;2023-03-23T13:46:28;98976.92;;;18.16;47.19
50310;BME280;36207;51.850;21.698;2023-03-23T13:56:59;98977.90;;;18.02;46.91
50310;BME280;36207;51.850;21.698;2023-03-23T14:01:57;98985.70;;;17.95;47.37
50310;BME280;36207;51.850;21.698;2023-03-23T14:04:42;98981.89;;;17.91;45.91
50310;BME280;36207;51.850;21.698;2023-03-23T14:07:15;98978.78;;;17.89;46.40
50310;BME280;36207;51.850;21.698;2023-03-23T14:09:44;98981.25;;;17.87;46.63
50310;BME280;36207;51.850;21.698;2023-03-23T14:12:18;98979.70;;;17.84;46.29
50310;BME280;36207;51.850;21.698;2023-03-23T14:14:50;98980.44;;;17.83;46.44
50310;BME280;36207;51.850;21.698;2023-03-23T14:17:24;98974.08;;;17.85;46.93
50310;BME280;36207;51.850;21.698;2023-03-23T14:19:53;98970.45;;;17.83;46.17
50310;BME280;36207;51.850;21.698;2023-03-23T14:22:25;98962.46;;;17.83;46.31
50310;BME280;36207;51.850;21.698;2023-03-23T14:24:59;98960.95;;;17.82;47.05
50310;BME280;36207;51.850;21.698;2023-03-23T14:27:26;98962.77;;;17.81;46.52
50310;BME280;36207;51.850;21.698;2023-03-23T14:30:06;98963.17;;;17.80;47.12
50310;BME280;36207;51.850;21.698;2023-03-23T14:32:32;98956.14;;;17.76;46.50
50310;BME280;36207;51.850;21.698;2023-03-23T14:35:04;98953.89;;;17.74;46.63
50310;BME280;36207;51.850;21.698;2023-03-23T14:37:32;98955.48;;;17.71;46.47
50310;BME280;36207;51.850;21.698;2023-03-23T14:39:58;98950.50;;;17.66;46.05
50310;BME280;36207;51.850;21.698;2023-03-23T14:42:34;98954.91;;;17.64;46.81
50310;BME280;36207;51.850;21.698;2023-03-23T14:45:03;98963.25;;;17.61;47.28
50310;BME280;36207;51.850;21.698;2023-03-23T14:47:33;98970.12;;;17.58;47.25
50310;BME280;36207;51.850;21.698;2023-03-23T14:50:03;98969.55;;;17.53;47.05
50310;BME280;36207;51.850;21.698;2023-03-23T14:52:35;98971.77;;;17.49;47.27